Koerth, Texas
Current Conditions -  °F | °C
As of 2:35 PM on Monday 26 Jan 2015 (Local Time) from K66R Reporting Station
Clear Clear  
Wind Chill: 71°   Ceiling: Unl
Heat Index: 71°   Visibility: 10mi
Dew Point: 38°   Wind: 7mph
Humidity: 30%   Direction: 320°NW
Pressure: 30.16"   Gusts: NA
Location:  29.3984°N, 96.8256°W
Report Text: K66R 262035Z AUTO 32006KT 10SM CLR 21/03 A3016 RMK AO2 T02140031
Loading
Personal Weather Stations






























Interactive Weather Map New forecast layout! Learn more

10-Day Weather Forecast

Advertisements
Track Severe Weather on mobile